Time;durP1;ratioP1;P1;durP2;ratioP2;P2;SDS_P1;SDS_P2;PMS_P1;PMS_P2;Temp;Humidity;BMP_temperature;BMP_pressure;BME280_temperature;BME280_humidity;BME280_pressure;Samples;Min_cycle;Max_cycle;Signal;HPM_P1;HPM_P2
2022/03/22 00:00:21;;;;;;;;;18.00;15.50;;;;;15.62;44.32;102219.56;5054977;28;45134;-72
2022/03/22 00:02:47;;;;;;;;;25.25;19.00;;;;;15.88;44.31;102266.16;5053589;28;45501;-72
2022/03/22 00:05:12;;;;;;;;;21.50;17.50;;;;;15.79;44.13;102247.06;5036785;28;45105;-70
2022/03/22 00:07:37;;;;;;;;;21.00;16.75;;;;;15.86;44.36;102267.00;5040663;28;45068;-71
2022/03/22 00:10:03;;;;;;;;;21.00;19.50;;;;;15.86;44.35;102273.31;5033813;28;45512;-72
2022/03/22 00:12:29;;;;;;;;;24.00;19.00;;;;;15.81;44.06;102274.94;5031063;28;45412;-71
2022/03/22 00:14:54;;;;;;;;;20.50;18.75;;;;;15.57;44.55;102222.13;5034336;28;44967;-72
2022/03/22 00:17:21;;;;;;;;;20.00;19.25;;;;;15.75;44.39;102263.94;5035555;28;44991;-71
2022/03/22 00:19:47;;;;;;;;;19.00;17.75;;;;;15.51;44.15;102230.03;5051578;28;45062;-70
2022/03/22 00:22:13;;;;;;;;;19.75;15.50;;;;;15.64;44.14;102259.16;5052208;28;45628;-72
2022/03/22 00:24:39;;;;;;;;;20.00;18.75;;;;;15.60;44.10;102259.91;5034269;28;44958;-72
2022/03/22 00:27:04;;;;;;;;;22.50;19.50;;;;;15.70;43.83;102288.06;5032333;28;45185;-71
2022/03/22 00:29:29;;;;;;;;;16.75;15.50;;;;;15.70;44.16;102284.47;5032196;28;45207;-71
2022/03/22 00:31:56;;;;;;;;;19.00;18.00;;;;;15.52;43.55;102248.00;5014228;28;47594;-72
2022/03/22 00:34:23;;;;;;;;;28.50;21.75;;;;;15.60;43.92;102284.16;5034441;28;45297;-71
2022/03/22 00:36:50;;;;;;;;;15.50;15.50;;;;;15.51;44.20;102270.44;5034865;28;45060;-72
2022/03/22 00:39:16;;;;;;;;;18.75;18.00;;;;;15.53;44.20;102284.88;5034303;28;45010;-71
2022/03/22 00:41:41;;;;;;;;;21.25;19.50;;;;;15.48;44.55;102294.59;5034219;28;45192;-72
2022/03/22 00:44:06;;;;;;;;;16.75;15.75;;;;;15.49;44.05;102291.00;5049489;28;44942;-70
2022/03/22 00:46:32;;;;;;;;;21.75;20.25;;;;;15.42;44.40;102283.63;5053478;28;44923;-72
2022/03/22 00:48:58;;;;;;;;;19.75;16.75;;;;;15.26;44.38;102266.06;5053871;28;45133;-70
2022/03/22 00:51:24;;;;;;;;;21.75;19.00;;;;;15.34;44.35;102285.16;5033374;28;47088;-71
2022/03/22 00:53:51;;;;;;;;;19.75;18.00;;;;;15.35;44.48;102295.97;5033371;28;45192;-72
2022/03/22 00:56:17;;;;;;;;;20.00;16.25;;;;;14.96;44.41;102217.53;5035439;28;45272;-71
2022/03/22 00:58:43;;;;;;;;;15.50;15.50;;;;;15.13;43.93;102245.94;5032774;28;45081;-71
2022/03/22 01:01:08;;;;;;;;;17.50;17.50;;;;;15.37;44.04;102288.84;5033756;28;45771;-70
2022/03/22 01:03:33;;;;;;;;;19.00;16.50;;;;;15.07;43.91;102246.63;5046038;28;45018;-70
2022/03/22 01:06:01;;;;;;;;;18.00;17.50;;;;;14.92;43.73;102241.66;5052225;28;45394;-71
2022/03/22 01:08:29;;;;;;;;;18.75;16.75;;;;;15.19;43.65;102288.28;5052191;28;45286;-71
2022/03/22 01:10:54;;;;;;;;;20.50;15.75;;;;;14.96;43.24;102257.91;5051828;28;45028;-71
2022/03/22 01:13:22;;;;;;;;;18.50;17.25;;;;;15.08;43.67;102282.56;5043360;28;45073;-70
2022/03/22 01:15:47;;;;;;;;;14.25;12.25;;;;;15.07;43.58;102284.31;5033192;28;44942;-70
2022/03/22 01:18:13;;;;;;;;;18.00;16.25;;;;;15.02;43.47;102269.78;5034698;28;45171;-71
2022/03/22 01:20:41;;;;;;;;;15.75;14.00;;;;;14.98;43.18;102265.19;5052943;28;45384;-70
2022/03/22 01:23:09;;;;;;;;;18.50;16.50;;;;;15.06;43.45;102281.56;5016778;28;45213;-71
2022/03/22 01:25:36;;;;;;;;;14.75;14.50;;;;;15.06;43.46;102281.56;5052694;28;45205;-71
2022/03/22 01:28:04;;;;;;;;;18.25;18.00;;;;;15.00;43.37;102267.94;5052272;28;45010;-71
2022/03/22 01:30:31;;;;;;;;;20.75;17.50;;;;;14.90;43.23;102243.41;5035134;28;46134;-71
2022/03/22 01:32:56;;;;;;;;;18.75;17.00;;;;;14.92;43.24;102270.38;5052832;28;44908;-71
2022/03/22 01:35:24;;;;;;;;;17.50;16.25;;;;;14.99;43.20;102275.06;5052110;28;44993;-71
2022/03/22 01:37:51;;;;;;;;;19.25;15.50;;;;;14.60;43.23;102202.03;5050269;28;45022;-70
2022/03/22 01:40:19;;;;;;;;;20.00;17.25;;;;;15.03;43.14;102277.03;5052066;28;45051;-70
2022/03/22 01:42:44;;;;;;;;;22.75;19.50;;;;;15.03;43.61;102281.47;5035045;28;45152;-69
2022/03/22 01:45:10;;;;;;;;;19.25;16.25;;;;;14.99;42.98;102276.88;5037905;28;44943;-71
2022/03/22 01:47:37;;;;;;;;;15.50;14.00;;;;;14.98;43.29;102278.66;5035882;28;45324;-70
2022/03/22 01:50:05;;;;;;;;;20.25;16.00;;;;;14.78;42.89;102240.28;5043345;28;45530;-71
2022/03/22 01:52:34;;;;;;;;;20.25;17.00;;;;;14.78;43.16;102239.38;5052304;28;45031;-70
2022/03/22 01:55:00;;;;;;;;;20.75;17.75;;;;;14.71;42.97;102233.78;5052448;28;45009;-70
2022/03/22 01:57:26;;;;;;;;;17.75;16.25;;;;;14.83;42.90;102243.13;5050012;28;45164;-71
2022/03/22 01:59:51;;;;;;;;;18.00;18.00;;;;;14.71;42.92;102225.72;5052144;28;45582;-70
2022/03/22 02:07:47;;;;;;;;;19.75;18.00;;;;;14.92;42.50;102271.25;5047198;28;45096;-70
2022/03/22 02:10:13;;;;;;;;;24.50;20.00;;;;;14.63;42.54;102229.03;5051756;28;45746;-70
2022/03/22 02:12:41;;;;;;;;;21.25;18.00;;;;;14.56;42.35;102215.34;5051210;28;45373;-71
2022/03/22 02:15:07;;;;;;;;;19.00;17.75;;;;;14.69;42.47;102240.91;5044666;28;45183;-71
2022/03/22 02:17:34;;;;;;;;;20.50;15.00;;;;;14.90;42.63;102264.03;5039089;28;45104;-70
2022/03/22 02:20:01;;;;;;;;;18.25;17.00;;;;;14.85;42.31;102258.50;5049317;28;45487;-71
2022/03/22 02:22:34;;;;;;;;;19.00;14.25;;;;;14.75;42.34;102245.59;5051848;28;44930;-70
2022/03/22 02:25:00;;;;;;;;;17.00;16.00;;;;;14.49;42.27;102201.66;5046518;28;45238;-71
2022/03/22 02:27:28;;;;;;;;;16.50;16.50;;;;;14.42;42.09;102179.03;5052435;28;45122;-71
2022/03/22 02:29:53;;;;;;;;;20.75;16.75;;;;;14.47;42.12;102198.91;5051352;28;45142;-71
2022/03/22 02:32:26;;;;;;;;;17.75;15.00;;;;;14.82;42.15;102261.06;5051350;28;49308;-70
2022/03/22 02:34:51;;;;;;;;;18.75;18.25;;;;;14.85;42.02;102274.63;5039972;28;45141;-71
2022/03/22 02:37:17;;;;;;;;;17.50;17.50;;;;;14.76;41.83;102262.66;5038304;28;45212;-70
2022/03/22 02:39:42;;;;;;;;;19.00;17.00;;;;;14.62;41.59;102272.91;5043817;28;45411;-70
2022/03/22 02:42:08;;;;;;;;;18.75;16.50;;;;;14.43;41.75;102245.38;5043446;28;45113;-70
2022/03/22 02:44:34;;;;;;;;;20.25;16.50;;;;;14.44;41.90;102252.59;5032734;28;45060;-71
2022/03/22 02:46:59;;;;;;;;;18.25;16.25;;;;;14.51;41.96;102280.59;5033053;28;45055;-70
2022/03/22 02:49:24;;;;;;;;;19.75;15.50;;;;;14.50;41.83;102277.00;5032611;28;45741;-71
2022/03/22 02:51:50;;;;;;;;;18.00;16.50;;;;;14.48;41.98;102280.50;5032186;28;45181;-70
2022/03/22 02:54:16;;;;;;;;;25.25;20.75;;;;;14.46;41.70;102272.38;5028997;28;45136;-71
2022/03/22 02:56:41;;;;;;;;;20.50;16.25;;;;;14.48;42.25;102277.81;5013670;28;45022;-71
2022/03/22 02:59:06;;;;;;;;;21.50;18.75;;;;;13.93;41.74;102180.00;5031018;28;45451;-71
2022/03/22 03:01:32;;;;;;;;;22.50;17.75;;;;;14.27;41.89;102248.38;5040885;28;45153;-70
2022/03/22 03:04:00;;;;;;;;;17.50;16.75;;;;;14.30;41.98;102256.56;5041900;28;45299;-71
2022/03/22 03:06:28;;;;;;;;;21.25;18.75;;;;;14.33;42.07;102268.31;5051468;28;44986;-71
2022/03/22 03:08:55;;;;;;;;;21.25;19.25;;;;;14.12;41.85;102252.38;5049282;28;46451;-70
2022/03/22 03:11:20;;;;;;;;;19.50;17.50;;;;;14.32;42.25;102287.09;5049820;28;45033;-70
2022/03/22 03:16:29;;;;;;;;;22.75;20.25;;;;;14.11;42.47;102241.56;5044419;28;45152;-71
2022/03/22 03:18:54;;;;;;;;;21.25;15.50;;;;;14.36;41.73;102287.25;5030480;28;47560;-71
2022/03/22 03:21:20;;;;;;;;;17.00;15.00;;;;;14.32;42.06;102289.78;5035977;28;45092;-71
2022/03/22 03:23:45;;;;;;;;;21.25;16.00;;;;;14.00;42.48;102239.38;5031708;28;45065;-70
2022/03/22 03:26:10;;;;;;;;;24.75;20.25;;;;;13.98;42.65;102251.84;5030604;28;45089;-69
2022/03/22 03:28:36;;;;;;;;;23.75;19.50;;;;;14.16;42.41;102286.56;5047101;28;45100;-70
2022/03/22 03:31:01;;;;;;;;;19.00;17.50;;;;;13.90;42.56;102279.31;5049730;28;45366;-70
2022/03/22 03:33:26;;;;;;;;;20.50;17.25;;;;;14.06;42.59;102279.00;5048064;28;44958;-71
2022/03/22 03:35:52;;;;;;;;;20.00;18.25;;;;;14.10;41.84;102283.63;5029715;28;45089;-71
2022/03/22 03:38:17;;;;;;;;;22.75;17.50;;;;;14.08;42.58;102285.34;5046646;28;45115;-70
2022/03/22 03:43:26;;;;;;;;;22.75;19.75;;;;;13.99;42.30;102267.13;5050443;28;44847;-70
2022/03/22 03:48:35;;;;;;;;;19.75;16.00;;;;;13.90;42.79;102263.19;5028801;28;45410;-70
2022/03/22 03:51:01;;;;;;;;;21.00;17.50;;;;;13.81;42.43;102240.50;5033388;28;45187;-70
2022/03/22 03:53:26;;;;;;;;;25.75;19.00;;;;;14.00;42.24;102300.28;5032980;28;45295;-71
2022/03/22 03:55:51;;;;;;;;;22.75;18.75;;;;;13.86;42.41;102270.22;5032907;28;45220;-71
2022/03/22 03:58:17;;;;;;;;;22.25;21.00;;;;;14.04;42.53;102301.31;5042848;28;45196;-70
2022/03/22 04:00:42;;;;;;;;;20.75;18.25;;;;;13.83;42.42;102272.78;5051184;28;45247;-71
2022/03/22 04:03:07;;;;;;;;;18.50;17.25;;;;;13.80;42.47;102283.41;5053154;28;45088;-71
2022/03/22 04:05:33;;;;;;;;;22.25;19.50;;;;;13.95;42.35;102305.47;5042723;28;45476;-71
2022/03/22 04:07:58;;;;;;;;;24.25;21.50;;;;;13.51;42.83;102239.31;5036006;28;45682;-71
2022/03/22 04:10:23;;;;;;;;;22.50;20.75;;;;;13.57;42.51;102243.16;5051044;28;45258;-70
2022/03/22 04:12:49;;;;;;;;;21.75;17.75;;;;;13.80;42.76;102294.16;5053388;28;45233;-70
2022/03/22 04:15:14;;;;;;;;;16.00;14.00;;;;;13.53;42.56;102241.22;5051584;28;45233;-69
2022/03/22 04:17:40;;;;;;;;;19.75;14.00;;;;;13.83;43.14;102314.00;5040768;28;45475;-71
2022/03/22 04:20:07;;;;;;;;;17.50;17.50;;;;;13.76;42.57;102305.63;5031282;28;44859;-70
2022/03/22 04:22:32;;;;;;;;;18.25;16.50;;;;;13.75;43.16;102301.13;5028098;28;45176;-71
2022/03/22 04:24:58;;;;;;;;;15.00;14.50;;;;;13.50;42.83;102272.44;5052005;28;45096;-71
2022/03/22 04:32:51;;;;;;;;;25.50;19.50;;;;;13.68;43.07;102300.00;5040805;28;45168;-70
2022/03/22 04:35:18;;;;;;;;;22.50;18.75;;;;;13.38;42.90;102252.28;5054048;28;45009;-69
2022/03/22 04:37:47;;;;;;;;;17.25;14.00;;;;;13.28;43.61;102237.56;5053225;28;46007;-70
2022/03/22 04:40:14;;;;;;;;;19.00;16.50;;;;;13.55;43.35;102284.25;5053252;28;45527;-70
2022/03/22 04:42:40;;;;;;;;;22.25;22.25;;;;;13.67;42.86;102319.63;5051767;28;45121;-70
2022/03/22 04:45:06;;;;;;;;;31.75;21.50;;;;;13.47;43.89;102294.69;5050904;28;45108;-70
2022/03/22 04:47:33;;;;;;;;;23.00;21.00;;;;;13.28;43.45;102274.19;5047025;28;45859;-70
2022/03/22 04:49:59;;;;;;;;;19.75;19.00;;;;;13.36;43.94;102314.81;5050350;28;44934;-70
2022/03/22 04:57:53;;;;;;;;;23.50;19.50;;;;;13.25;44.11;102312.59;5051607;28;45305;-70
2022/03/22 05:00:19;;;;;;;;;22.25;19.00;;;;;13.20;44.52;102310.56;5053467;28;45159;-70
2022/03/22 05:02:44;;;;;;;;;25.75;24.50;;;;;13.26;44.21;102354.69;5052665;28;44934;-70
2022/03/22 05:05:09;;;;;;;;;21.25;21.00;;;;;13.20;44.17;102342.75;5053690;28;45163;-70
2022/03/22 05:07:35;;;;;;;;;21.25;18.25;;;;;13.05;44.01;102317.16;5040105;28;45118;-70
2022/03/22 05:10:00;;;;;;;;;23.75;20.25;;;;;13.19;44.45;102339.16;5034270;28;44959;-69
2022/03/22 05:12:25;;;;;;;;;24.75;22.75;;;;;13.21;44.65;102353.56;5033636;28;45280;-71
2022/03/22 05:14:51;;;;;;;;;24.75;22.75;;;;;12.93;43.71;102296.94;5034319;28;45139;-69
2022/03/22 05:17:23;;;;;;;;;27.00;21.75;;;;;13.23;44.58;102342.88;5033749;28;46050;-71
2022/03/22 05:19:50;;;;;;;;;23.50;20.25;;;;;13.17;44.08;102351.63;5034751;28;45066;-70
2022/03/22 05:22:18;;;;;;;;;24.50;23.75;;;;;13.18;44.29;102350.78;5047381;28;45143;-71
2022/03/22 05:24:45;;;;;;;;;22.25;18.50;;;;;13.04;44.35;102314.41;5049237;28;45598;-70
2022/03/22 05:27:15;;;;;;;;;24.75;20.50;;;;;13.24;44.73;102358.16;5052892;28;45226;-70
2022/03/22 05:29:41;;;;;;;;;22.00;21.25;;;;;13.11;44.15;102328.97;5052774;28;45272;-70
2022/03/22 05:32:07;;;;;;;;;19.50;19.50;;;;;13.15;44.09;102333.59;5052885;28;45200;-70
2022/03/22 05:34:32;;;;;;;;;38.75;31.50;;;;;12.98;44.24;102308.78;5046286;28;45274;-71
2022/03/22 05:36:58;;;;;;;;;26.25;23.25;;;;;13.27;44.24;102361.88;5046739;28;45179;-71
2022/03/22 05:39:23;;;;;;;;;23.25;20.50;;;;;13.13;43.78;102343.38;5052369;28;45084;-70
2022/03/22 05:41:48;;;;;;;;;31.25;22.75;;;;;13.17;43.58;102375.78;5052879;28;44998;-70
2022/03/22 05:44:14;;;;;;;;;25.00;23.50;;;;;13.10;44.38;102371.00;5053502;28;44930;-69
2022/03/22 05:46:40;;;;;;;;;25.75;22.25;;;;;12.85;44.45;102335.09;5041996;28;45692;-69
2022/03/22 05:49:08;;;;;;;;;24.50;23.50;;;;;13.04;44.48;102376.09;5031669;28;45194;-71
2022/03/22 05:51:34;;;;;;;;;27.75;25.75;;;;;13.02;44.68;102381.41;5037395;28;45537;-70
2022/03/22 05:54:00;;;;;;;;;26.00;19.75;;;;;12.94;44.24;102388.22;5030484;28;45348;-70
2022/03/22 05:56:25;;;;;;;;;22.50;21.75;;;;;12.72;44.50;102348.84;5031948;28;47965;-70
2022/03/22 05:58:50;;;;;;;;;24.25;22.25;;;;;12.96;43.74;102390.97;5030278;28;46238;-70
2022/03/22 06:01:16;;;;;;;;;27.25;23.00;;;;;13.00;44.77;102384.88;5030851;28;45079;-70
2022/03/22 06:03:42;;;;;;;;;27.25;24.25;;;;;12.47;45.45;102307.53;5034397;28;45674;-70
2022/03/22 06:06:07;;;;;;;;;21.00;20.50;;;;;12.96;44.44;102394.56;5051366;28;45614;-70
2022/03/22 06:08:34;;;;;;;;;23.00;20.75;;;;;12.52;44.35;102329.16;5049198;28;45041;-71
2022/03/22 06:10:59;;;;;;;;;28.75;27.00;;;;;12.93;45.12;102401.56;5050014;28;45224;-71
2022/03/22 06:13:24;;;;;;;;;27.75;22.25;;;;;12.82;44.63;102401.06;5049545;28;45402;-69
2022/03/22 06:15:52;;;;;;;;;33.50;26.75;;;;;12.84;44.83;102416.41;5029574;28;45572;-71
2022/03/22 06:18:17;;;;;;;;;31.00;27.00;;;;;12.69;44.91;102384.47;5043576;28;45451;-70
2022/03/22 06:20:42;;;;;;;;;28.50;27.00;;;;;12.89;44.89;102424.66;5043475;28;45072;-70
2022/03/22 06:23:10;;;;;;;;;27.50;22.25;;;;;12.84;45.68;102419.09;5032578;28;45163;-71
2022/03/22 06:25:37;;;;;;;;;27.50;26.00;;;;;12.86;44.01;102414.69;5035561;28;45679;-71
2022/03/22 06:28:04;;;;;;;;;30.50;25.25;;;;;12.76;44.29;102415.16;5032394;28;45048;-71
2022/03/22 06:30:30;;;;;;;;;36.25;27.75;;;;;12.75;45.12;102426.72;5032842;28;45182;-70
2022/03/22 06:33:00;;;;;;;;;31.25;25.50;;;;;12.77;44.71;102419.69;5043990;28;45178;-71
2022/03/22 06:35:32;;;;;;;;;28.75;23.25;;;;;12.73;45.15;102417.69;5027906;28;46246;-71
2022/03/22 06:37:59;;;;;;;;;22.00;20.75;;;;;12.04;45.26;102315.41;5037346;28;45173;-72
2022/03/22 06:40:29;;;;;;;;;29.25;21.75;;;;;12.56;44.79;102416.94;5051655;28;45040;-72
2022/03/22 06:42:56;;;;;;;;;25.50;24.00;;;;;12.54;45.41;102424.00;5050848;28;45110;-71
2022/03/22 06:45:22;;;;;;;;;34.25;26.25;;;;;12.41;45.25;102416.25;5037994;28;45009;-71
2022/03/22 06:47:48;;;;;;;;;26.25;24.25;;;;;12.42;44.65;102405.56;5049566;28;45078;-72
2022/03/22 06:50:16;;;;;;;;;46.75;37.25;;;;;12.63;45.41;102428.88;5043913;28;45713;-72
2022/03/22 06:52:42;;;;;;;;;29.00;27.50;;;;;12.53;45.16;102416.81;5036253;28;45203;-71
2022/03/22 06:55:09;;;;;;;;;23.25;23.00;;;;;12.63;45.01;102421.72;5034615;28;47631;-72
2022/03/22 06:57:36;;;;;;;;;35.25;28.50;;;;;12.69;45.07;102431.81;5038301;28;45489;-72
2022/03/22 07:00:05;;;;;;;;;32.25;26.25;;;;;12.74;44.96;102441.00;5032401;28;44931;-71
2022/03/22 07:02:31;;;;;;;;;25.50;21.50;;;;;12.68;44.50;102440.72;5034516;28;45308;-72
2022/03/22 07:04:56;;;;;;;;;30.25;27.25;;;;;12.65;44.26;102444.16;5042039;28;45620;-72
2022/03/22 07:07:22;;;;;;;;;26.50;24.00;;;;;12.62;44.51;102446.72;5027278;28;45368;-70
2022/03/22 07:09:48;;;;;;;;;27.75;26.25;;;;;12.57;44.52;102440.22;5051839;28;45170;-72
2022/03/22 07:12:13;;;;;;;;;39.50;32.00;;;;;12.44;45.06;102422.66;5051620;28;44970;-72
2022/03/22 07:14:40;;;;;;;;;35.25;31.00;;;;;12.67;44.78;102439.81;5048850;28;46071;-72
2022/03/22 07:17:10;;;;;;;;;31.25;28.75;;;;;12.76;44.00;102433.00;5050655;28;45019;-71
2022/03/22 07:19:36;;;;;;;;;30.00;28.00;;;;;12.58;44.62;102404.50;5041964;28;45169;-72
2022/03/22 07:22:02;;;;;;;;;28.00;27.00;;;;;12.70;43.42;102434.56;5006792;28;44976;-73
2022/03/22 07:24:27;;;;;;;;;32.50;30.50;;;;;12.81;45.01;102442.19;5018759;28;45571;-71
2022/03/22 07:26:53;;;;;;;;;37.00;29.75;;;;;12.89;44.28;102448.81;5053234;28;44964;-73
2022/03/22 07:29:18;;;;;;;;;44.25;37.75;;;;;12.72;43.58;102416.78;5054477;28;45127;-71
2022/03/22 07:31:44;;;;;;;;;21.50;17.00;;;;;12.91;43.48;102447.09;5054725;28;45088;-72
2022/03/22 07:34:11;;;;;;;;;40.50;34.00;;;;;12.74;43.32;102419.53;5053611;28;47140;-72
2022/03/22 07:36:40;;;;;;;;;32.50;30.25;;;;;12.77;43.09;102429.47;5053548;28;45116;-72
2022/03/22 07:39:07;;;;;;;;;29.00;27.75;;;;;11.66;43.31;102229.75;5054186;28;45118;-72
2022/03/22 07:41:38;;;;;;;;;15.25;12.00;;;;;12.95;43.46;102450.81;5052449;28;45526;-73
2022/03/22 07:44:05;;;;;;;;;38.75;32.00;;;;;13.00;43.77;102441.22;5051801;28;45789;-72
2022/03/22 07:46:31;;;;;;;;;34.25;31.75;;;;;13.07;43.71;102443.31;5051836;28;45051;-72
2022/03/22 07:54:24;;;;;;;;;31.00;27.00;;;;;13.17;42.66;102450.91;5053510;28;45379;-72
2022/03/22 07:56:50;;;;;;;;;31.75;26.50;;;;;13.15;42.61;102441.88;5032778;28;45019;-72
2022/03/22 07:59:16;;;;;;;;;22.25;21.00;;;;;13.10;42.60;102443.47;5042451;28;45574;-72
2022/03/22 08:01:41;;;;;;;;;32.50;27.25;;;;;13.02;43.12;102427.03;5035673;28;45427;-71
2022/03/22 08:04:07;;;;;;;;;35.75;33.00;;;;;13.20;42.71;102450.13;5017891;28;47137;-71
2022/03/22 08:06:32;;;;;;;;;40.50;30.00;;;;;13.30;43.08;102454.09;5030794;28;45525;-72
2022/03/22 08:08:57;;;;;;;;;48.00;37.25;;;;;13.27;42.28;102431.66;5016416;28;45387;-73
2022/03/22 08:11:24;;;;;;;;;38.00;34.75;;;;;13.25;42.12;102433.38;5017082;28;45603;-74
2022/03/22 08:13:49;;;;;;;;;33.50;31.50;;;;;13.49;42.58;102471.97;4998187;28;47702;-73
2022/03/22 08:16:14;;;;;;;;;28.75;27.50;;;;;13.19;42.45;102416.09;5016222;28;45420;-73
2022/03/22 08:18:42;;;;;;;;;34.00;32.25;;;;;13.47;41.65;102466.53;5016559;28;45433;-72
2022/03/22 08:21:08;;;;;;;;;35.00;30.00;;;;;13.21;42.23;102395.59;5016746;28;45506;-72
2022/03/22 08:23:33;;;;;;;;;37.00;31.75;;;;;13.35;42.21;102404.28;5015952;28;46204;-72
2022/03/22 08:25:58;;;;;;;;;39.75;31.25;;;;;13.74;41.78;102466.78;5016271;28;45298;-73
2022/03/22 08:28:24;;;;;;;;;40.75;34.00;;;;;13.61;41.71;102429.50;5018250;28;45642;-72
2022/03/22 08:30:49;;;;;;;;;33.00;25.50;;;;;13.82;41.47;102443.78;5035406;28;45472;-72
2022/03/22 08:33:15;;;;;;;;;36.50;33.25;;;;;13.79;41.75;102432.94;5035353;28;45798;-72
2022/03/22 08:35:46;;;;;;;;;34.50;30.50;;;;;13.91;40.73;102462.06;5034572;28;45528;-73
2022/03/22 08:38:14;;;;;;;;;52.50;43.00;;;;;13.97;40.80;102454.28;5034496;28;45635;-71
2022/03/22 08:40:40;;;;;;;;;33.50;31.00;;;;;14.10;40.37;102461.00;5034863;28;45424;-71
2022/03/22 08:43:07;;;;;;;;;45.00;36.75;;;;;14.15;39.90;102451.34;5034789;28;46471;-71
2022/03/22 08:45:34;;;;;;;;;44.00;34.00;;;;;14.35;39.80;102461.97;5026858;28;45533;-73
2022/03/22 08:48:02;;;;;;;;;37.00;29.75;;;;;14.27;35.75;102452.69;5015512;28;45437;-73
2022/03/22 08:50:27;;;;;;;;;38.50;30.75;;;;;14.25;36.65;102457.09;5015446;28;45543;-73
2022/03/22 08:52:56;;;;;;;;;34.25;31.00;;;;;14.46;37.01;102457.03;5015341;28;46187;-72
2022/03/22 08:55:23;;;;;;;;;27.75;25.25;;;;;14.47;33.47;102449.00;5015849;28;45480;-72
2022/03/22 08:57:49;;;;;;;;;27.75;24.00;;;;;14.60;30.90;102455.81;5015733;28;45419;-72
2022/03/22 09:00:17;;;;;;;;;28.50;24.00;;;;;14.53;30.76;102426.78;5015939;28;45649;-72
2022/03/22 09:02:45;;;;;;;;;21.75;19.75;;;;;14.73;29.61;102459.84;5015037;28;46154;-72
2022/03/22 09:07:58;;;;;;;;;26.75;24.00;;;;;14.80;28.34;102429.63;5015536;28;45509;-72
2022/03/22 09:10:27;;;;;;;;;27.75;23.75;;;;;15.06;28.06;102451.16;5015973;28;45364;-74
2022/03/22 09:12:52;;;;;;;;;23.00;20.75;;;;;15.18;28.35;102454.28;5016816;28;46094;-72
2022/03/22 09:15:20;;;;;;;;;27.50;25.50;;;;;14.96;27.37;102430.16;5017140;28;45403;-73
2022/03/22 09:17:46;;;;;;;;;25.50;21.75;;;;;15.32;27.13;102445.78;5017669;28;45448;-72
2022/03/22 09:20:13;;;;;;;;;22.25;20.75;;;;;15.46;25.86;102461.53;5014630;28;45457;-73
2022/03/22 09:22:45;;;;;;;;;26.00;19.00;;;;;15.46;25.60;102439.97;5034327;28;45467;-72
2022/03/22 09:25:12;;;;;;;;;16.75;16.75;;;;;15.63;25.15;102456.69;5034212;28;45276;-72
2022/03/22 09:27:38;;;;;;;;;18.00;17.25;;;;;15.62;24.03;102449.50;5034009;28;45542;-73
2022/03/22 09:30:05;;;;;;;;;18.25;18.25;;;;;15.75;24.18;102463.34;5034186;28;45471;-72
2022/03/22 09:32:31;;;;;;;;;21.75;21.00;;;;;15.79;24.15;102471.63;5033761;28;45959;-72
2022/03/22 09:34:58;;;;;;;;;20.00;19.25;;;;;15.85;23.98;102462.81;5034779;28;45558;-71
2022/03/22 09:37:24;;;;;;;;;26.25;23.00;;;;;15.93;24.00;102463.06;5034901;28;45471;-74
2022/03/22 09:39:50;;;;;;;;;20.00;18.25;;;;;15.57;23.94;102397.22;5035125;28;45390;-73
2022/03/22 09:42:15;;;;;;;;;15.25;14.50;;;;;15.93;23.97;102463.06;5034254;28;45529;-72
2022/03/22 09:44:43;;;;;;;;;27.75;22.50;;;;;15.97;24.14;102471.31;5033916;28;45390;-73
2022/03/22 09:47:10;;;;;;;;;17.00;14.50;;;;;16.02;23.87;102458.00;5033915;28;45550;-72
2022/03/22 09:49:38;;;;;;;;;23.25;19.50;;;;;15.92;24.33;102424.44;5032628;28;45598;-72
2022/03/22 09:52:03;;;;;;;;;23.00;21.50;;;;;16.23;23.55;102448.72;5033590;28;45528;-71
2022/03/22 09:54:29;;;;;;;;;22.00;20.75;;;;;16.31;24.11;102447.16;5034209;28;45472;-72
2022/03/22 09:56:54;;;;;;;;;24.00;23.75;;;;;16.56;23.73;102440.69;5033919;28;45469;-73
2022/03/22 09:59:19;;;;;;;;;23.00;19.25;;;;;16.70;22.39;102412.34;5027947;28;45376;-72
2022/03/22 10:01:45;;;;;;;;;29.00;28.50;;;;;16.48;22.04;102361.31;5033736;28;45599;-73
2022/03/22 10:04:13;;;;;;;;;18.00;18.00;;;;;16.96;22.25;102444.56;5034116;28;45656;-73
2022/03/22 10:06:48;;;;;;;;;20.75;20.00;;;;;16.97;22.09;102440.97;5033938;28;45477;-73
2022/03/22 10:09:13;;;;;;;;;20.50;18.75;;;;;16.97;22.48;102450.88;5033849;28;45426;-73
2022/03/22 10:11:42;;;;;;;;;21.25;19.50;;;;;17.00;22.04;102446.47;5033563;28;45890;-73
2022/03/22 10:14:10;;;;;;;;;19.50;17.00;;;;;17.11;22.50;102441.38;5027631;28;45276;-73
2022/03/22 10:16:51;;;;;;;;;22.00;19.50;;;;;17.13;21.82;102439.63;5033849;28;45582;-72
2022/03/22 10:19:18;;;;;;;;;19.75;19.75;;;;;16.87;22.61;102384.91;5034207;28;45463;-71
2022/03/22 10:21:45;;;;;;;;;22.50;19.25;;;;;17.07;21.82;102417.84;5033589;28;47049;-72
2022/03/22 10:24:13;;;;;;;;;23.00;22.25;;;;;16.90;21.42;102374.22;5033382;28;45316;-72
2022/03/22 10:26:38;;;;;;;;;22.25;20.00;;;;;17.00;21.14;102391.56;5033703;28;45339;-72
2022/03/22 10:29:06;;;;;;;;;28.50;21.00;;;;;17.36;21.05;102440.22;5033704;28;45498;-71
2022/03/22 10:31:34;;;;;;;;;16.00;16.00;;;;;17.45;21.34;102431.41;5033917;28;45648;-72
2022/03/22 10:34:00;;;;;;;;;19.25;18.25;;;;;17.48;21.59;102427.00;5033677;28;45311;-73
2022/03/22 10:36:26;;;;;;;;;19.75;18.25;;;;;17.27;21.50;102391.34;5033689;28;45478;-74
2022/03/22 10:38:56;;;;;;;;;20.00;16.50;;;;;17.43;20.74;102425.06;5033534;28;45545;-74
2022/03/22 10:41:32;;;;;;;;;25.25;18.50;;;;;17.34;21.52;102412.25;5015283;28;46468;-72
2022/03/22 10:44:01;;;;;;;;;21.25;19.75;;;;;17.28;21.56;102410.28;5032948;28;45689;-73
2022/03/22 10:46:28;;;;;;;;;18.75;17.50;;;;;17.47;21.69;102429.66;5033232;28;45598;-72
2022/03/22 10:49:06;;;;;;;;;19.00;18.50;;;;;17.41;21.68;102414.22;5033234;28;45541;-73
2022/03/22 10:51:35;;;;;;;;;22.25;20.25;;;;;17.59;21.86;102424.56;5032666;28;45470;-72
2022/03/22 10:54:00;;;;;;;;;19.50;19.00;;;;;17.39;21.84;102370.06;5033014;28;45343;-72
2022/03/22 10:56:26;;;;;;;;;23.00;20.75;;;;;17.72;21.79;102416.75;5015289;28;46032;-73
2022/03/22 10:58:54;;;;;;;;;19.25;17.25;;;;;17.49;21.11;102387.41;5032739;28;45561;-73
2022/03/22 11:01:20;;;;;;;;;24.25;22.25;;;;;17.56;22.05;102388.47;5031869;28;45541;-72
2022/03/22 11:03:48;;;;;;;;;28.50;25.50;;;;;17.51;21.61;102377.53;5014919;28;45404;-72
2022/03/22 11:06:15;;;;;;;;;29.50;27.25;;;;;17.75;21.26;102406.94;5033661;28;45439;-73
2022/03/22 11:08:41;;;;;;;;;23.50;20.50;;;;;17.55;21.51;102363.19;5034349;28;45317;-72
2022/03/22 11:11:07;;;;;;;;;22.25;20.50;;;;;17.57;21.72;102369.56;5034282;28;46506;-72
2022/03/22 11:13:33;;;;;;;;;32.25;24.25;;;;;17.80;21.81;102386.31;5033635;28;45482;-72
2022/03/22 11:15:59;;;;;;;;;25.75;22.75;;;;;17.94;22.03;102404.69;5033256;28;45405;-72
2022/03/22 11:18:30;;;;;;;;;17.75;13.75;;;;;18.02;21.42;102405.78;5032937;28;45634;-72
2022/03/22 11:20:58;;;;;;;;;27.00;21.00;;;;;18.08;21.46;102408.59;5031889;28;45501;-73
2022/03/22 11:23:26;;;;;;;;;21.75;20.50;;;;;18.00;20.96;102378.69;5032412;28;45355;-73
2022/03/22 11:25:52;;;;;;;;;23.25;18.50;;;;;17.97;21.47;102378.63;5032810;28;45518;-73
2022/03/22 11:28:20;;;;;;;;;28.00;24.75;;;;;18.01;21.23;102369.69;5032723;28;45406;-74
2022/03/22 11:30:46;;;;;;;;;19.00;19.00;;;;;18.10;21.30;102366.28;5032521;28;46092;-73
2022/03/22 11:36:01;;;;;;;;;27.25;23.75;;;;;18.18;21.28;102345.72;5032049;28;45474;-71
2022/03/22 11:38:43;;;;;;;;;25.00;20.75;;;;;18.49;21.16;102394.13;5014835;28;45508;-73
2022/03/22 11:44:15;;;;;;;;;27.25;26.00;;;;;18.33;20.86;102373.94;5032260;28;45457;-74